Terminal Aerodrome Forecast
Issued by NWS

Current Version | Previous Version | Text Only | Print | Product List | Glossary On
Versions: 1 2 3 4 5 6 7 8 9 10 11 12
000
FTUS45 KFGZ 292300
TAFPRC
TAF
KPRC 292320Z 3000/3024 22007KT P6SM SCT250
     FM300200 VRB03KT P6SM SCT250
     FM301800 20008KT P6SM FEW120 SCT250=

USA.gov is the U.S. government's official web portal to all federal, state and local government web resources and services.